Time;durP1;ratioP1;P1;durP2;ratioP2;P2;SDS_P1;SDS_P2;PMS_P1;PMS_P2;Temp;Humidity;BMP_temperature;BMP_pressure;BME280_temperature;BME280_humidity;BME280_pressure;Samples;Min_cycle;Max_cycle;Signal;HPM_P1;HPM_P2
2023/04/19 00:00:20;;;;;;;15.03;8.90;;;12.60;83.70;;;;;;6217317;23;20412;-71
2023/04/19 00:02:48;;;;;;;6.40;5.50;;;12.60;84.30;;;;;;6217936;23;20155;-72
2023/04/19 00:05:13;;;;;;;7.43;6.63;;;12.70;83.00;;;;;;6217839;23;20365;-70
2023/04/19 00:07:39;;;;;;;7.30;6.30;;;12.60;83.50;;;;;;6218051;23;20758;-71
2023/04/19 00:10:05;;;;;;;7.73;5.90;;;12.60;84.20;;;;;;6217240;23;20186;-69
2023/04/19 00:12:31;;;;;;;9.07;5.47;;;12.50;85.50;;;;;;6218074;23;20191;-70
2023/04/19 00:14:57;;;;;;;6.77;5.83;;;12.60;84.20;;;;;;6217791;23;20364;-70
2023/04/19 00:17:22;;;;;;;7.00;5.77;;;12.60;84.40;;;;;;6217878;23;20131;-71
2023/04/19 00:19:48;;;;;;;6.73;6.03;;;12.50;85.50;;;;;;6217003;23;20242;-70
2023/04/19 00:22:13;;;;;;;7.80;6.20;;;12.60;84.60;;;;;;6219360;23;20139;-70
2023/04/19 00:24:39;;;;;;;6.27;5.63;;;12.60;86.20;;;;;;6219342;23;20138;-70
2023/04/19 00:27:05;;;;;;;8.00;5.83;;;12.50;86.30;;;;;;6219495;23;20142;-70
2023/04/19 00:29:30;;;;;;;5.57;5.03;;;12.60;86.10;;;;;;6218863;23;20240;-70
2023/04/19 00:31:57;;;;;;;7.40;6.00;;;12.60;86.90;;;;;;6219202;23;20131;-71
2023/04/19 00:34:23;;;;;;;7.30;6.13;;;12.50;87.80;;;;;;6219165;23;20405;-71
2023/04/19 00:36:48;;;;;;;6.80;5.80;;;12.50;88.20;;;;;;6219446;23;20142;-72
2023/04/19 00:39:14;;;;;;;6.33;5.73;;;12.40;88.90;;;;;;6219026;23;20531;-73
2023/04/19 00:41:39;;;;;;;5.23;4.63;;;12.40;89.80;;;;;;6220092;23;20139;-69
2023/04/19 00:44:05;;;;;;;7.23;5.83;;;12.30;90.40;;;;;;6219483;23;20147;-70
2023/04/19 00:46:32;;;;;;;5.90;5.00;;;12.30;90.30;;;;;;6220432;23;20142;-68
2023/04/19 00:48:58;;;;;;;5.97;4.57;;;12.30;90.50;;;;;;6192396;23;20455;-71
2023/04/19 00:51:26;;;;;;;5.73;4.53;;;12.30;90.80;;;;;;6192587;23;20461;-72
2023/04/19 00:53:51;;;;;;;8.10;5.30;;;12.20;91.10;;;;;;6219398;23;20213;-71
2023/04/19 00:56:20;;;;;;;6.90;5.70;;;12.30;91.10;;;;;;6194638;23;20388;-72
2023/04/19 00:58:46;;;;;;;5.70;4.90;;;12.30;90.50;;;;;;6218225;23;20389;-71
2023/04/19 01:01:12;;;;;;;6.10;4.80;;;12.30;90.80;;;;;;6219414;23;20363;-70
2023/04/19 01:03:38;;;;;;;6.93;5.20;;;12.30;90.80;;;;;;6193220;23;20377;-71
2023/04/19 01:06:03;;;;;;;5.60;4.63;;;12.30;91.40;;;;;;6192918;23;20558;-73
2023/04/19 01:08:29;;;;;;;5.60;4.80;;;12.30;91.10;;;;;;6218969;23;20152;-70
2023/04/19 01:10:55;;;;;;;5.37;4.87;;;12.20;91.60;;;;;;6191812;23;20626;-70
2023/04/19 01:13:20;;;;;;;6.30;4.87;;;12.20;92.00;;;;;;6218931;23;20139;-71
2023/04/19 01:15:47;;;;;;;7.60;4.73;;;12.30;92.10;;;;;;6193049;23;20138;-73
2023/04/19 01:18:12;;;;;;;5.80;4.50;;;12.20;92.20;;;;;;6219128;23;20420;-70
2023/04/19 01:20:38;;;;;;;7.10;4.90;;;12.10;92.60;;;;;;6192446;23;20169;-71
2023/04/19 01:23:04;;;;;;;5.80;4.83;;;12.20;92.70;;;;;;6192964;23;20221;-69
2023/04/19 01:25:30;;;;;;;5.27;4.70;;;12.20;93.00;;;;;;6219062;23;20167;-69
2023/04/19 01:27:55;;;;;;;6.60;5.03;;;12.20;93.20;;;;;;6219058;23;20129;-70
2023/04/19 01:30:22;;;;;;;7.20;5.43;;;12.20;93.80;;;;;;6192470;23;20630;-72
2023/04/19 01:32:48;;;;;;;7.30;5.40;;;12.20;93.10;;;;;;6218689;23;20467;-68
2023/04/19 01:35:13;;;;;;;5.30;4.47;;;12.20;93.10;;;;;;6218752;23;20165;-70
2023/04/19 01:37:39;;;;;;;5.87;4.87;;;12.20;93.40;;;;;;6218572;23;20142;-71
2023/04/19 01:40:05;;;;;;;5.00;3.83;;;12.20;93.90;;;;;;6191507;23;20190;-70
2023/04/19 01:42:31;;;;;;;8.47;5.10;;;12.10;94.20;;;;;;6218887;23;20634;-72
2023/04/19 01:44:59;;;;;;;5.00;4.50;;;12.10;94.50;;;;;;6218739;23;20439;-75
2023/04/19 01:47:26;;;;;;;6.03;4.70;;;12.00;94.50;;;;;;6192549;23;20388;-72
2023/04/19 01:49:51;;;;;;;5.17;4.43;;;11.90;95.20;;;;;;6218485;23;20876;-72
2023/04/19 01:52:17;;;;;;;6.73;5.87;;;11.80;95.80;;;;;;6195031;23;20373;-73
2023/04/19 01:54:42;;;;;;;6.00;4.40;;;11.70;96.40;;;;;;6192178;23;20389;-70
2023/04/19 01:57:08;;;;;;;5.80;4.83;;;11.70;96.60;;;;;;6219182;23;20496;-70
2023/04/19 01:59:33;;;;;;;4.93;4.40;;;11.70;97.10;;;;;;6191943;23;20555;-71
2023/04/19 02:01:59;;;;;;;4.57;3.60;;;11.60;97.20;;;;;;6192271;23;20142;-72
2023/04/19 02:04:25;;;;;;;6.93;4.90;;;11.60;97.50;;;;;;6193863;23;20159;-70
2023/04/19 02:06:50;;;;;;;5.47;4.33;;;11.60;97.70;;;;;;6193275;23;20178;-69
2023/04/19 02:09:16;;;;;;;7.30;5.33;;;11.60;97.90;;;;;;6192239;23;20158;-71
2023/04/19 02:11:45;;;;;;;6.10;3.93;;;11.60;98.20;;;;;;6199511;23;20187;-71
2023/04/19 02:14:10;;;;;;;5.60;3.60;;;11.60;98.30;;;;;;6201214;23;20384;-71
2023/04/19 02:16:36;;;;;;;8.90;6.47;;;11.50;98.60;;;;;;6194871;23;20139;-70
2023/04/19 02:19:02;;;;;;;9.70;6.47;;;11.50;98.60;;;;;;6188617;23;20162;-70
2023/04/19 02:21:28;;;;;;;8.40;6.20;;;11.60;98.70;;;;;;6187932;23;20147;-71
2023/04/19 02:23:53;;;;;;;7.60;6.30;;;11.60;98.50;;;;;;6188212;23;20845;-69
2023/04/19 02:26:19;;;;;;;8.30;6.93;;;11.50;98.40;;;;;;6189532;23;20221;-70
2023/04/19 02:28:44;;;;;;;7.10;6.00;;;11.60;98.60;;;;;;6189904;23;20197;-71
2023/04/19 02:31:11;;;;;;;6.77;5.80;;;11.60;98.70;;;;;;6186727;23;20178;-71
2023/04/19 02:33:37;;;;;;;7.10;6.20;;;11.60;98.70;;;;;;6189169;23;20737;-71
2023/04/19 02:36:03;;;;;;;7.50;6.67;;;11.60;98.70;;;;;;6188258;23;20151;-71
2023/04/19 02:38:28;;;;;;;11.13;6.40;;;11.70;98.80;;;;;;6186500;23;20149;-70
2023/04/19 02:40:54;;;;;;;7.17;6.30;;;11.70;98.40;;;;;;6186936;23;20378;-72
2023/04/19 02:43:20;;;;;;;7.87;6.57;;;11.80;98.50;;;;;;6187753;23;20153;-71
2023/04/19 02:45:45;;;;;;;7.33;6.37;;;11.80;98.70;;;;;;6189748;23;20162;-71
2023/04/19 02:48:13;;;;;;;6.83;6.10;;;11.90;97.70;;;;;;6167504;23;20166;-70
2023/04/19 02:50:39;;;;;;;7.03;6.30;;;11.90;98.00;;;;;;6116005;23;20429;-70
2023/04/19 02:53:05;;;;;;;7.37;6.43;;;11.80;98.30;;;;;;6192771;23;20390;-74
2023/04/19 02:55:32;;;;;;;7.13;6.17;;;11.80;98.60;;;;;;6168055;23;20143;-71
2023/04/19 02:58:04;;;;;;;10.30;7.87;;;11.80;98.60;;;;;;6191384;23;20489;-73
2023/04/19 03:00:32;;;;;;;10.53;9.37;;;11.90;97.80;;;;;;6169191;23;20405;-74
2023/04/19 03:03:06;;;;;;;13.00;8.90;;;12.00;97.20;;;;;;6168601;23;20397;-71
2023/04/19 03:05:32;;;;;;;10.20;9.17;;;12.00;97.00;;;;;;6168480;23;20807;-72
2023/04/19 03:07:58;;;;;;;13.23;9.40;;;11.90;97.50;;;;;;6190531;23;20420;-72
2023/04/19 03:10:24;;;;;;;16.47;10.60;;;11.80;98.10;;;;;;6191228;23;20448;-76
2023/04/19 03:12:49;;;;;;;11.83;9.50;;;11.70;98.70;;;;;;6165488;23;20186;-73
2023/04/19 03:15:15;;;;;;;11.40;9.63;;;11.70;98.80;;;;;;6192335;23;20431;-69
2023/04/19 03:17:41;;;;;;;11.20;10.10;;;11.60;99.00;;;;;;6191290;23;20131;-70
2023/04/19 03:20:10;;;;;;;11.40;10.00;;;11.80;98.90;;;;;;6189872;23;20175;-72
2023/04/19 03:22:37;;;;;;;11.90;10.07;;;11.90;98.60;;;;;;6195781;23;20142;-70
2023/04/19 03:25:03;;;;;;;12.00;10.23;;;11.80;98.90;;;;;;6187919;23;20374;-71
2023/04/19 03:27:29;;;;;;;13.57;11.77;;;11.70;99.40;;;;;;6185990;23;20849;-70
2023/04/19 03:29:59;;;;;;;11.87;9.80;;;11.80;99.60;;;;;;6163364;23;20503;-74
2023/04/19 03:32:25;;;;;;;10.67;9.57;;;11.80;99.60;;;;;;6161328;23;20393;-71
2023/04/19 03:34:51;;;;;;;9.87;8.83;;;11.80;99.90;;;;;;6186284;23;20381;-70
2023/04/19 03:37:17;;;;;;;13.70;9.57;;;11.70;99.90;;;;;;6186166;23;20378;-72
2023/04/19 03:39:43;;;;;;;13.47;10.70;;;11.60;99.90;;;;;;6185866;23;20166;-71
2023/04/19 03:42:13;;;;;;;11.87;10.43;;;11.50;99.90;;;;;;6186041;23;20377;-72
2023/04/19 03:44:45;;;;;;;10.70;9.60;;;11.60;99.90;;;;;;6187398;23;20399;-72
2023/04/19 03:47:14;;;;;;;17.60;9.90;;;11.60;99.90;;;;;;6185964;23;20378;-72
2023/04/19 03:49:42;;;;;;;9.07;7.57;;;11.70;99.90;;;;;;6185242;23;20421;-72
2023/04/19 03:52:08;;;;;;;10.60;8.90;;;11.70;99.90;;;;;;6185855;23;20807;-71
2023/04/19 03:54:34;;;;;;;11.30;10.10;;;11.60;99.90;;;;;;6187269;23;20206;-71
2023/04/19 03:57:01;;;;;;;10.97;8.50;;;11.60;99.90;;;;;;6187639;23;20147;-71
2023/04/19 03:59:27;;;;;;;11.70;9.30;;;11.60;99.90;;;;;;6187969;23;20401;-73
2023/04/19 04:01:53;;;;;;;12.53;8.93;;;11.70;99.90;;;;;;6191361;23;20454;-73
2023/04/19 04:04:19;;;;;;;12.23;10.43;;;11.70;99.90;;;;;;6191859;23;20382;-71
2023/04/19 04:06:44;;;;;;;11.97;9.90;;;11.70;99.90;;;;;;6192097;23;20384;-72
2023/04/19 04:09:11;;;;;;;12.50;9.50;;;11.70;99.90;;;;;;6190330;23;20604;-71
2023/04/19 04:11:36;;;;;;;10.90;9.03;;;11.70;99.90;;;;;;6191027;23;20434;-70
2023/04/19 04:14:03;;;;;;;11.47;9.30;;;11.60;99.90;;;;;;6169136;23;20143;-70
2023/04/19 04:16:31;;;;;;;10.83;9.40;;;11.70;99.90;;;;;;6166824;23;20366;-71
2023/04/19 04:18:57;;;;;;;10.20;8.40;;;11.50;99.90;;;;;;6166412;23;20653;-70
2023/04/19 04:21:26;;;;;;;11.07;9.97;;;11.50;99.90;;;;;;6192907;23;20146;-73
2023/04/19 04:23:52;;;;;;;10.27;8.63;;;11.60;99.90;;;;;;6192002;23;20620;-75
2023/04/19 04:26:29;;;;;;;13.57;9.77;;;11.60;99.90;;;;;;6193234;23;20358;-72
2023/04/19 04:29:07;;;;;;;13.17;11.03;;;11.60;99.90;;;;;;6191452;23;20664;-73
2023/04/19 04:31:34;;;;;;;14.13;9.90;;;11.60;99.90;;;;;;6191857;23;20501;-73
2023/04/19 04:34:01;;;;;;;13.27;10.00;;;11.60;99.90;;;;;;6193473;23;20390;-73
2023/04/19 04:36:28;;;;;;;15.33;10.47;;;11.50;99.90;;;;;;6192629;23;20377;-72
2023/04/19 04:38:55;;;;;;;11.40;10.30;;;11.70;99.90;;;;;;6193183;23;20794;-70
2023/04/19 04:41:21;;;;;;;10.50;9.13;;;11.60;99.90;;;;;;6192450;23;20684;-71
2023/04/19 04:43:50;;;;;;;15.03;10.10;;;11.60;99.90;;;;;;6174345;23;20366;-72
2023/04/19 04:46:17;;;;;;;11.63;9.80;;;11.50;99.90;;;;;;6193892;23;20440;-74
2023/04/19 04:48:42;;;;;;;10.37;9.27;;;11.60;99.90;;;;;;6198378;23;20374;-72
2023/04/19 04:51:08;;;;;;;14.20;10.33;;;11.50;99.90;;;;;;6208593;23;20413;-70
2023/04/19 04:53:36;;;;;;;12.90;10.13;;;11.60;99.90;;;;;;6184271;23;20301;-73
2023/04/19 04:56:04;;;;;;;11.43;9.60;;;11.50;99.90;;;;;;6197706;23;20370;-73
2023/04/19 04:58:30;;;;;;;10.80;9.70;;;11.50;99.90;;;;;;6192497;23;20370;-71
2023/04/19 05:01:00;;;;;;;10.13;8.80;;;11.50;99.90;;;;;;6196206;23;20896;-71
2023/04/19 05:03:26;;;;;;;12.27;10.97;;;11.40;99.90;;;;;;6193495;23;20456;-72
2023/04/19 05:05:56;;;;;;;12.00;10.30;;;11.40;99.90;;;;;;6194671;23;20409;-72
2023/04/19 05:08:25;;;;;;;12.40;10.60;;;11.40;99.90;;;;;;6197580;23;20409;-72
2023/04/19 05:10:53;;;;;;;10.73;7.97;;;11.50;99.90;;;;;;6197711;23;20422;-73
2023/04/19 05:13:21;;;;;;;9.40;8.30;;;11.40;99.90;;;;;;6174779;23;20381;-74
2023/04/19 05:15:48;;;;;;;9.93;8.93;;;11.40;99.90;;;;;;6176111;23;20372;-72
2023/04/19 05:18:14;;;;;;;13.07;9.63;;;11.40;99.90;;;;;;6173377;23;20404;-74
2023/04/19 05:20:40;;;;;;;10.80;9.60;;;11.50;99.90;;;;;;6199296;23;20181;-73
2023/04/19 05:23:14;;;;;;;15.23;10.50;;;11.40;99.90;;;;;;6202275;23;20601;-76
2023/04/19 05:25:40;;;;;;;9.70;8.63;;;11.50;99.90;;;;;;6203241;23;20373;-73
2023/04/19 05:28:06;;;;;;;14.10;10.70;;;11.50;99.90;;;;;;6206632;23;20373;-74
2023/04/19 05:30:40;;;;;;;9.77;7.97;;;11.50;99.90;;;;;;6180524;23;20260;-74
2023/04/19 05:33:06;;;;;;;13.90;10.70;;;11.50;99.90;;;;;;6178485;23;20389;-72
2023/04/19 05:35:32;;;;;;;14.33;10.30;;;11.60;99.90;;;;;;6204268;23;20165;-77
2023/04/19 05:37:58;;;;;;;11.57;9.60;;;11.60;99.90;;;;;;6204975;23;20149;-75
2023/04/19 05:40:23;;;;;;;12.23;9.53;;;11.60;99.90;;;;;;6177673;23;20241;-75
2023/04/19 05:42:49;;;;;;;13.57;10.37;;;11.50;99.90;;;;;;6178051;23;20391;-74
2023/04/19 05:45:19;;;;;;;13.00;9.87;;;11.50;99.90;;;;;;6183000;23;20197;-76
2023/04/19 05:47:45;;;;;;;11.20;9.30;;;11.60;99.90;;;;;;6181462;23;20470;-74
2023/04/19 05:50:28;;;;;;;12.07;10.30;;;11.70;99.90;;;;;;6199454;23;20430;-74
2023/04/19 05:53:12;;;;;;;10.90;9.10;;;11.80;99.90;;;;;;6228386;23;20415;-76
2023/04/19 05:55:38;;;;;;;12.70;10.33;;;11.90;99.20;;;;;;6204432;23;20697;-74
2023/04/19 05:58:03;;;;;;;11.23;8.93;;;11.90;98.00;;;;;;6201850;23;20214;-73
2023/04/19 06:00:29;;;;;;;13.63;10.33;;;11.90;97.90;;;;;;6198729;23;20193;-72
2023/04/19 06:03:03;;;;;;;11.50;10.30;;;11.80;98.40;;;;;;6203110;23;20181;-74
2023/04/19 06:05:29;;;;;;;10.50;9.40;;;11.90;97.70;;;;;;6211717;23;20381;-73
2023/04/19 06:07:55;;;;;;;15.83;11.30;;;11.90;97.60;;;;;;6236984;23;20187;-73
2023/04/19 06:10:22;;;;;;;16.63;12.07;;;11.90;97.10;;;;;;6205144;23;20412;-76
2023/04/19 06:12:48;;;;;;;16.73;10.83;;;11.90;96.90;;;;;;6175783;23;20439;-73
2023/04/19 06:15:13;;;;;;;11.10;9.87;;;11.80;96.90;;;;;;6201075;23;20380;-73
2023/04/19 06:17:39;;;;;;;14.10;10.60;;;11.80;97.80;;;;;;6201098;23;20555;-74
2023/04/19 06:20:06;;;;;;;15.70;11.97;;;11.80;96.70;;;;;;6202317;23;20177;-76
2023/04/19 06:22:32;;;;;;;12.60;10.30;;;11.90;96.00;;;;;;6202648;23;20142;-75
2023/04/19 06:24:59;;;;;;;14.33;10.70;;;11.90;96.30;;;;;;6200675;23;20372;-73
2023/04/19 06:27:25;;;;;;;10.20;9.00;;;11.90;95.70;;;;;;6176550;23;20372;-74
2023/04/19 06:29:50;;;;;;;13.13;9.30;;;12.00;94.80;;;;;;6199253;23;20420;-73
2023/04/19 06:32:16;;;;;;;13.00;9.13;;;12.00;94.10;;;;;;6199727;23;20142;-73
2023/04/19 06:34:42;;;;;;;13.33;9.83;;;12.00;93.70;;;;;;6226067;23;20138;-76
2023/04/19 06:37:07;;;;;;;11.23;8.30;;;12.00;93.10;;;;;;6227759;23;20134;-75
2023/04/19 06:39:34;;;;;;;11.43;7.70;;;12.10;92.50;;;;;;6226525;23;20248;-73
2023/04/19 06:42:01;;;;;;;14.67;7.83;;;12.10;91.90;;;;;;6176442;23;20150;-76
2023/04/19 06:44:27;;;;;;;11.87;9.03;;;12.10;91.40;;;;;;6178140;23;20400;-73
2023/04/19 06:46:53;;;;;;;9.97;8.37;;;12.10;90.80;;;;;;6229924;23;20362;-74
2023/04/19 06:49:18;;;;;;;9.43;7.97;;;12.20;90.40;;;;;;6174858;23;20167;-77
2023/04/19 06:51:44;;;;;;;9.90;7.37;;;12.30;89.50;;;;;;6227999;23;20181;-76
2023/04/19 06:54:10;;;;;;;8.50;6.90;;;12.30;88.00;;;;;;6229799;23;20141;-73
2023/04/19 06:56:46;;;;;;;9.00;6.93;;;12.40;88.50;;;;;;6227689;23;20158;-73
2023/04/19 06:59:17;;;;;;;15.10;7.10;;;12.50;86.60;;;;;;6200634;23;20196;-75
2023/04/19 07:01:44;;;;;;;12.70;7.10;;;12.70;80.70;;;;;;6176965;23;20385;-73
2023/04/19 07:04:10;;;;;;;8.50;6.93;;;12.90;77.90;;;;;;6200036;23;20488;-76
2023/04/19 07:06:36;;;;;;;7.70;6.53;;;12.90;76.70;;;;;;6201248;23;20385;-74
2023/04/19 07:09:03;;;;;;;8.23;6.67;;;13.00;75.80;;;;;;6201208;23;20431;-75
2023/04/19 07:11:29;;;;;;;9.30;6.87;;;13.00;75.40;;;;;;6176558;23;20722;-76
2023/04/19 07:13:55;;;;;;;7.57;6.77;;;13.20;72.50;;;;;;6201513;23;20380;-76
2023/04/19 07:16:20;;;;;;;8.30;6.67;;;13.30;69.80;;;;;;6227999;23;20361;-73
2023/04/19 07:18:46;;;;;;;7.70;5.87;;;13.40;69.20;;;;;;6198490;23;20154;-73
2023/04/19 07:21:12;;;;;;;7.03;5.80;;;13.60;66.30;;;;;;6226550;23;20138;-74
2023/04/19 07:23:37;;;;;;;9.00;5.90;;;13.60;64.50;;;;;;6200710;23;20193;-73
2023/04/19 07:26:03;;;;;;;7.10;5.80;;;13.70;64.50;;;;;;6177213;23;20147;-75
2023/04/19 07:28:29;;;;;;;7.93;5.63;;;13.80;63.30;;;;;;6226211;23;20521;-74
2023/04/19 07:30:55;;;;;;;7.53;5.40;;;13.70;62.80;;;;;;6228462;23;20192;-74
2023/04/19 07:33:23;;;;;;;8.53;5.70;;;13.70;62.50;;;;;;6202827;23;20650;-76
2023/04/19 07:35:50;;;;;;;6.37;5.70;;;13.80;60.90;;;;;;6206523;23;20349;-77
2023/04/19 07:38:16;;;;;;;9.17;5.20;;;13.80;60.20;;;;;;6178907;23;20409;-76
2023/04/19 07:40:41;;;;;;;6.40;5.27;;;13.80;60.00;;;;;;6229813;23;20495;-74
2023/04/19 07:43:07;;;;;;;8.33;4.50;;;13.90;59.00;;;;;;6206842;23;20180;-77
2023/04/19 07:45:33;;;;;;;7.00;5.77;;;13.80;59.80;;;;;;6210293;23;20123;-76
2023/04/19 07:47:58;;;;;;;13.03;5.47;;;13.90;58.70;;;;;;6237393;23;20134;-72
2023/04/19 07:50:27;;;;;;;5.87;5.27;;;13.90;57.50;;;;;;6185133;23;20185;-74
2023/04/19 07:52:53;;;;;;;6.03;4.83;;;13.90;57.50;;;;;;6207822;23;20153;-75
2023/04/19 07:55:19;;;;;;;6.20;5.07;;;14.00;57.30;;;;;;6209265;23;20401;-75
2023/04/19 07:57:47;;;;;;;5.37;4.77;;;14.00;56.60;;;;;;6208539;23;20157;-74
2023/04/19 08:00:20;;;;;;;5.67;5.17;;;14.10;56.30;;;;;;6233939;23;20388;-74
2023/04/19 08:02:47;;;;;;;8.47;6.03;;;14.10;55.00;;;;;;6207863;23;20488;-76
2023/04/19 08:05:17;;;;;;;7.23;4.93;;;14.10;54.00;;;;;;6209100;23;20383;-74
2023/04/19 08:07:43;;;;;;;6.30;5.40;;;14.10;54.30;;;;;;6231426;23;20363;-74
2023/04/19 08:10:09;;;;;;;5.60;4.87;;;14.20;54.40;;;;;;6179573;23;20429;-74
2023/04/19 08:12:35;;;;;;;8.37;5.20;;;14.20;53.70;;;;;;6231372;23;20415;-77
2023/04/19 08:15:02;;;;;;;8.03;5.10;;;14.20;53.50;;;;;;6180881;23;20372;-76
2023/04/19 08:17:28;;;;;;;7.03;4.70;;;14.20;53.50;;;;;;6200913;23;20360;-73
2023/04/19 08:19:54;;;;;;;4.60;4.20;;;14.00;53.90;;;;;;6179865;23;20534;-75
2023/04/19 08:22:20;;;;;;;12.70;5.97;;;14.00;53.40;;;;;;6208503;23;20138;-77
2023/04/19 08:24:48;;;;;;;5.73;5.20;;;14.10;53.50;;;;;;6184192;23;20161;-76
2023/04/19 08:27:14;;;;;;;7.73;5.87;;;14.10;53.10;;;;;;6182981;23;20373;-77
2023/04/19 08:29:40;;;;;;;8.03;5.83;;;14.00;53.20;;;;;;6206820;23;20393;-77
2023/04/19 08:32:06;;;;;;;7.13;5.30;;;14.00;53.20;;;;;;6202761;23;20173;-76
2023/04/19 08:34:38;;;;;;;6.73;4.53;;;14.00;53.10;;;;;;6177333;23;20150;-75
2023/04/19 08:37:06;;;;;;;8.27;4.90;;;14.00;53.10;;;;;;6177991;23;20377;-77
2023/04/19 08:39:32;;;;;;;8.37;5.37;;;14.10;52.90;;;;;;6204450;23;20476;-74
2023/04/19 08:42:07;;;;;;;5.70;4.60;;;14.10;52.30;;;;;;6205129;23;20376;-73
2023/04/19 08:44:35;;;;;;;4.80;4.33;;;14.20;52.10;;;;;;6205426;23;20404;-76
2023/04/19 08:47:01;;;;;;;10.83;6.00;;;14.30;51.40;;;;;;6181569;23;20412;-76
2023/04/19 08:49:27;;;;;;;6.37;4.43;;;14.30;51.40;;;;;;6178331;23;20403;-74
2023/04/19 08:51:54;;;;;;;7.80;5.60;;;14.20;51.00;;;;;;6205780;23;20412;-73
2023/04/19 08:54:21;;;;;;;7.33;5.53;;;14.30;50.60;;;;;;6181477;23;20361;-74
2023/04/19 08:56:46;;;;;;;5.77;4.70;;;14.30;50.60;;;;;;6206448;23;20364;-75
2023/04/19 08:59:13;;;;;;;5.60;4.60;;;14.30;50.00;;;;;;6183463;23;20858;-76
2023/04/19 09:01:39;;;;;;;7.30;5.17;;;14.50;49.20;;;;;;6205872;23;20191;-76
2023/04/19 09:04:06;;;;;;;9.97;5.10;;;14.50;49.10;;;;;;6184509;23;20867;-76
2023/04/19 09:06:36;;;;;;;6.20;4.90;;;14.70;48.80;;;;;;6208224;23;20385;-76
2023/04/19 09:09:19;;;;;;;7.07;6.37;;;14.70;47.90;;;;;;6237961;23;20462;-74
2023/04/19 09:11:45;;;;;;;7.47;5.33;;;14.80;48.00;;;;;;6186399;23;20469;-76
2023/04/19 09:14:15;;;;;;;8.70;6.10;;;14.70;48.20;;;;;;6184737;23;20365;-75
2023/04/19 09:16:44;;;;;;;7.50;5.40;;;14.80;48.40;;;;;;6187184;23;20368;-75
2023/04/19 09:19:15;;;;;;;11.53;5.10;;;14.90;48.00;;;;;;6181993;23;20416;-76
2023/04/19 09:21:41;;;;;;;6.60;5.23;;;14.90;47.60;;;;;;6204653;23;20372;-76
2023/04/19 09:24:07;;;;;;;7.60;5.30;;;15.00;46.90;;;;;;6180453;23;20370;-75
2023/04/19 09:26:34;;;;;;;6.67;4.50;;;15.10;46.50;;;;;;6232173;23;20383;-75
2023/04/19 09:29:04;;;;;;;5.67;4.90;;;15.10;45.90;;;;;;6204088;23;20418;-75
2023/04/19 09:31:35;;;;;;;4.40;3.60;;;15.10;44.90;;;;;;6238014;23;20405;-76
2023/04/19 09:34:18;;;;;;;5.87;4.00;;;15.10;44.60;;;;;;6187411;23;20385;-76
2023/04/19 09:36:44;;;;;;;5.67;4.27;;;15.20;44.30;;;;;;6184228;23;20383;-76
2023/04/19 09:39:11;;;;;;;7.43;4.87;;;15.30;43.80;;;;;;6205872;23;20399;-76
2023/04/19 09:41:52;;;;;;;4.43;4.03;;;15.40;42.90;;;;;;6232680;23;20366;-77
2023/04/19 09:44:19;;;;;;;9.03;4.23;;;15.20;42.60;;;;;;6207303;23;20378;-76
2023/04/19 09:46:47;;;;;;;7.83;4.37;;;15.20;42.50;;;;;;6183816;23;20379;-76
2023/04/19 09:49:19;;;;;;;6.80;3.87;;;15.10;41.80;;;;;;6182210;23;20706;-77
2023/04/19 09:51:50;;;;;;;5.10;4.20;;;15.10;42.30;;;;;;6181538;23;20423;-75
2023/04/19 09:54:26;;;;;;;8.37;4.40;;;15.10;41.60;;;;;;6207873;23;20365;-76
2023/04/19 09:56:51;;;;;;;5.40;4.17;;;15.20;41.20;;;;;;6184347;23;20371;-77
2023/04/19 09:59:18;;;;;;;5.40;4.10;;;15.20;40.80;;;;;;6184342;23;20401;-78
2023/04/19 10:01:46;;;;;;;6.93;4.10;;;15.10;40.10;;;;;;6206979;23;20389;-76
2023/04/19 10:04:20;;;;;;;4.57;3.60;;;15.10;40.10;;;;;;6234740;23;20384;-75
2023/04/19 10:06:53;;;;;;;6.30;4.20;;;15.10;39.90;;;;;;6181319;23;20381;-76
2023/04/19 10:09:20;;;;;;;5.20;4.20;;;15.20;41.00;;;;;;6207422;23;20399;-74
2023/04/19 10:11:50;;;;;;;6.53;4.13;;;15.20;40.00;;;;;;6181168;23;20429;-76
2023/04/19 10:14:26;;;;;;;3.97;3.57;;;15.30;40.50;;;;;;6204838;23;20368;-77
2023/04/19 10:16:52;;;;;;;4.70;3.90;;;15.30;39.90;;;;;;6183241;23;20438;-77
2023/04/19 10:19:20;;;;;;;4.93;4.10;;;15.40;39.20;;;;;;6182126;23;20451;-75
2023/04/19 10:21:47;;;;;;;6.50;2.93;;;15.40;39.40;;;;;;6182819;23;20373;-76
2023/04/19 10:24:14;;;;;;;4.77;3.30;;;15.40;39.70;;;;;;6232830;23;20389;-76
2023/04/19 10:27:10;;;;;;;3.83;3.40;;;15.40;39.70;;;;;;6182257;23;20391;-74
2023/04/19 10:29:55;;;;;;;5.00;3.73;;;15.50;39.70;;;;;;6185379;23;20400;-78
2023/04/19 10:32:23;;;;;;;4.00;3.43;;;15.50;39.40;;;;;;6211226;23;20388;-76
2023/04/19 10:34:52;;;;;;;4.23;3.77;;;15.40;39.20;;;;;;6188596;23;20404;-77
2023/04/19 10:37:21;;;;;;;5.97;3.93;;;15.40;39.30;;;;;;6183194;23;20365;-76
2023/04/19 10:39:47;;;;;;;4.83;3.20;;;15.40;39.00;;;;;;6181371;23;20412;-75
2023/04/19 10:42:12;;;;;;;4.30;3.67;;;15.50;39.40;;;;;;6234252;23;20353;-76
2023/04/19 10:44:38;;;;;;;3.87;3.47;;;15.60;39.60;;;;;;6183869;23;20457;-77
2023/04/19 10:47:05;;;;;;;5.40;3.17;;;15.70;39.20;;;;;;6212278;23;20153;-76
2023/04/19 10:49:30;;;;;;;6.07;3.47;;;15.70;39.10;;;;;;6210470;23;20161;-74
2023/04/19 10:51:59;;;;;;;4.70;4.20;;;15.70;39.90;;;;;;6209518;23;20396;-77
2023/04/19 10:54:38;;;;;;;5.97;3.90;;;15.80;39.70;;;;;;6206986;23;20217;-77
2023/04/19 10:57:04;;;;;;;7.60;5.70;;;15.80;39.70;;;;;;6234361;23;20467;-75
2023/04/19 10:59:36;;;;;;;6.80;3.80;;;15.90;39.50;;;;;;6180078;23;20397;-75
2023/04/19 11:02:20;;;;;;;5.10;3.87;;;16.00;39.10;;;;;;6183540;23;20377;-75
2023/04/19 11:04:49;;;;;;;4.50;3.43;;;16.20;38.10;;;;;;6183022;23;20365;-78
2023/04/19 11:07:22;;;;;;;4.97;3.30;;;16.10;37.10;;;;;;6234103;23;20357;-76
2023/04/19 11:09:48;;;;;;;5.50;3.03;;;16.00;36.50;;;;;;6182213;23;20460;-77
2023/04/19 11:12:17;;;;;;;3.40;2.93;;;15.90;36.00;;;;;;6183014;23;20413;-75
2023/04/19 11:14:45;;;;;;;8.27;3.80;;;15.90;36.00;;;;;;6234426;23;20751;-76
2023/04/19 11:17:18;;;;;;;4.43;2.50;;;15.90;36.60;;;;;;6182488;23;20388;-75
2023/04/19 11:19:58;;;;;;;7.50;4.23;;;16.00;36.70;;;;;;6206494;23;20401;-77
2023/04/19 11:22:38;;;;;;;4.00;3.43;;;16.20;37.40;;;;;;6234570;23;20382;-76
2023/04/19 11:25:16;;;;;;;4.53;3.30;;;16.20;37.70;;;;;;6209239;23;20400;-76
2023/04/19 11:27:47;;;;;;;4.90;3.50;;;16.20;37.70;;;;;;6205303;23;20373;-74
2023/04/19 11:30:15;;;;;;;4.40;3.40;;;16.20;37.70;;;;;;6206765;23;20424;-78
2023/04/19 11:32:52;;;;;;;5.03;3.93;;;16.20;37.70;;;;;;6183536;23;20357;-77
2023/04/19 11:35:20;;;;;;;9.33;4.33;;;16.10;36.90;;;;;;6207999;23;20368;-77
2023/04/19 11:37:45;;;;;;;6.47;3.93;;;16.00;36.70;;;;;;6181841;23;20361;-76
2023/04/19 11:40:16;;;;;;;4.00;3.00;;;16.00;36.80;;;;;;6206762;23;20387;-75
2023/04/19 11:42:42;;;;;;;6.90;3.47;;;16.00;36.60;;;;;;6182818;23;20142;-76
2023/04/19 11:45:09;;;;;;;5.63;4.47;;;16.00;36.60;;;;;;6208300;23;20441;-76
2023/04/19 11:47:48;;;;;;;4.80;3.33;;;16.10;35.70;;;;;;6239125;23;20383;-76
2023/04/19 11:50:32;;;;;;;4.23;3.60;;;16.10;35.00;;;;;;6186842;23;20740;-77
2023/04/19 11:52:59;;;;;;;5.13;3.50;;;16.10;35.00;;;;;;6206292;23;20375;-77
2023/04/19 11:55:25;;;;;;;6.50;3.20;;;16.10;34.30;;;;;;6183516;23;20375;-76
2023/04/19 11:57:51;;;;;;;6.40;3.63;;;16.10;33.90;;;;;;6182199;23;20766;-75
2023/04/19 12:00:27;;;;;;;6.03;3.30;;;16.00;33.90;;;;;;6233212;23;20540;-75
2023/04/19 12:02:56;;;;;;;5.87;3.27;;;16.00;33.80;;;;;;6207644;23;20153;-77
2023/04/19 12:05:22;;;;;;;7.27;3.47;;;16.00;34.00;;;;;;6184052;23;20392;-76
2023/04/19 12:08:05;;;;;;;4.87;3.03;;;16.00;33.40;;;;;;6179874;23;20358;-75
2023/04/19 12:10:32;;;;;;;4.23;2.90;;;16.00;33.80;;;;;;6184004;23;20424;-76
2023/04/19 12:12:58;;;;;;;6.00;3.20;;;16.30;34.40;;;;;;6181264;23;20423;-77
2023/04/19 12:15:42;;;;;;;8.37;2.90;;;16.40;33.30;;;;;;6209165;23;20477;-77
2023/04/19 12:18:08;;;;;;;3.83;2.33;;;16.50;32.00;;;;;;6184087;23;20412;-77
2023/04/19 12:20:36;;;;;;;3.23;2.60;;;16.40;31.20;;;;;;6209711;23;20428;-77
2023/04/19 12:23:03;;;;;;;2.93;2.37;;;16.30;31.00;;;;;;6237668;23;20142;-77
2023/04/19 12:25:30;;;;;;;4.97;2.40;;;16.20;31.10;;;;;;6187914;23;20386;-76
2023/04/19 12:27:56;;;;;;;2.87;2.40;;;16.10;31.20;;;;;;6184568;23;20372;-77
2023/04/19 12:30:22;;;;;;;3.70;2.40;;;16.00;31.20;;;;;;6185032;23;20420;-77
2023/04/19 12:32:50;;;;;;;6.50;2.70;;;15.90;31.30;;;;;;6208463;23;20364;-75
2023/04/19 12:35:16;;;;;;;4.30;2.67;;;15.80;31.50;;;;;;6185564;23;20185;-76
2023/04/19 12:37:42;;;;;;;2.80;2.50;;;15.80;31.10;;;;;;6183217;23;20376;-78
2023/04/19 12:40:09;;;;;;;4.60;2.67;;;15.80;31.40;;;;;;6232368;23;20397;-75
2023/04/19 12:42:35;;;;;;;5.00;2.63;;;15.70;31.70;;;;;;6185915;23;20146;-77
2023/04/19 12:45:01;;;;;;;2.70;1.80;;;15.60;31.20;;;;;;6186486;23;20428;-76